Time;durP1;ratioP1;P1;durP2;ratioP2;P2;SDS_P1;SDS_P2;PMS_P1;PMS_P2;Temp;Humidity;BMP_temperature;BMP_pressure;BME280_temperature;BME280_humidity;BME280_pressure;Samples;Min_cycle;Max_cycle;Signal;HPM_P1;HPM_P2
2021/07/23 00:01:20;;;;;;;7.90;6.97;;;20.10;99.90;;;;;;4975025;28;20200;-60
2021/07/23 00:03:47;;;;;;;7.50;6.80;;;20.00;99.90;;;;;;4975415;28;20198;-60
2021/07/23 00:06:14;;;;;;;8.10;7.30;;;20.00;99.90;;;;;;4975447;28;20228;-59
2021/07/23 00:08:39;;;;;;;8.00;7.20;;;20.00;99.90;;;;;;4975411;28;20197;-61
2021/07/23 00:11:04;;;;;;;8.23;7.40;;;20.00;99.90;;;;;;4975323;28;20186;-62
2021/07/23 00:13:30;;;;;;;7.70;6.90;;;20.00;99.90;;;;;;4975132;28;20200;-63
2021/07/23 00:15:56;;;;;;;8.20;7.07;;;20.00;99.90;;;;;;4975238;28;20174;-62
2021/07/23 00:18:21;;;;;;;10.30;7.20;;;20.00;99.90;;;;;;4975187;28;20661;-64
2021/07/23 00:20:47;;;;;;;8.60;6.83;;;19.90;99.90;;;;;;4975316;28;20496;-64
2021/07/23 00:23:12;;;;;;;9.10;7.50;;;19.90;99.90;;;;;;4974719;28;20204;-62
2021/07/23 00:25:38;;;;;;;8.30;7.07;;;19.80;99.90;;;;;;4974867;28;20276;-63
2021/07/23 00:28:04;;;;;;;7.60;6.80;;;19.80;99.90;;;;;;4975374;28;20288;-63
2021/07/23 00:30:29;;;;;;;9.57;7.83;;;19.70;99.90;;;;;;4975011;28;20185;-62
2021/07/23 00:32:55;;;;;;;10.77;7.03;;;19.70;99.90;;;;;;4974696;28;20194;-62
2021/07/23 00:35:21;;;;;;;9.67;6.80;;;19.60;99.90;;;;;;4974982;28;20178;-63
2021/07/23 00:37:46;;;;;;;8.23;7.03;;;19.60;99.90;;;;;;4975328;28;20189;-63
2021/07/23 00:40:12;;;;;;;7.47;6.67;;;19.60;99.90;;;;;;4974762;28;20693;-63
2021/07/23 00:42:42;;;;;;;8.00;7.20;;;19.60;99.90;;;;;;4974777;28;20657;-63
2021/07/23 00:45:09;;;;;;;8.53;6.87;;;19.50;99.90;;;;;;4975198;28;20650;-62
2021/07/23 00:47:36;;;;;;;8.10;7.30;;;19.50;99.90;;;;;;4973517;28;20244;-63
2021/07/23 00:50:02;;;;;;;9.40;7.47;;;19.50;99.90;;;;;;4974872;28;20178;-63
2021/07/23 00:52:28;;;;;;;7.53;6.83;;;19.40;99.90;;;;;;4974309;28;20203;-63
2021/07/23 00:54:54;;;;;;;7.70;7.00;;;19.50;99.90;;;;;;4975022;28;20221;-62
2021/07/23 00:57:20;;;;;;;8.30;7.30;;;19.60;99.90;;;;;;4974894;28;20557;-62
2021/07/23 00:59:46;;;;;;;7.60;6.90;;;19.50;99.90;;;;;;4974877;28;20236;-63
2021/07/23 01:02:12;;;;;;;8.00;7.20;;;19.40;99.90;;;;;;4974611;28;20531;-63
2021/07/23 01:04:39;;;;;;;7.30;6.63;;;19.50;99.90;;;;;;4975335;28;20277;-63
2021/07/23 01:07:05;;;;;;;9.00;6.93;;;19.40;99.90;;;;;;4974883;28;20292;-63
2021/07/23 01:09:31;;;;;;;7.77;7.07;;;19.40;99.90;;;;;;4977744;28;20188;-63
2021/07/23 01:11:57;;;;;;;8.00;7.30;;;19.40;99.90;;;;;;5002745;28;20173;-63
2021/07/23 01:14:24;;;;;;;7.90;6.57;;;19.40;99.90;;;;;;5004103;28;20286;-63
2021/07/23 01:16:50;;;;;;;8.03;7.23;;;19.40;99.90;;;;;;5003043;28;20639;-62
2021/07/23 01:19:18;;;;;;;7.73;7.03;;;19.40;99.90;;;;;;4997646;28;20312;-61
2021/07/23 01:21:47;;;;;;;8.07;7.27;;;19.40;99.90;;;;;;4993854;28;20168;-61
2021/07/23 01:24:14;;;;;;;9.27;7.33;;;19.30;99.90;;;;;;4993808;28;20208;-61
2021/07/23 01:26:41;;;;;;;8.57;7.47;;;19.30;99.90;;;;;;4992329;28;20630;-61
2021/07/23 01:29:06;;;;;;;8.53;7.63;;;19.20;99.90;;;;;;4993959;28;20256;-61
2021/07/23 01:31:35;;;;;;;7.70;7.00;;;19.20;99.90;;;;;;4993560;28;20611;-63
2021/07/23 01:34:00;;;;;;;8.00;7.20;;;19.10;99.90;;;;;;4993584;28;20285;-62
2021/07/23 01:36:26;;;;;;;8.10;7.30;;;19.10;99.90;;;;;;4996503;28;20259;-58
2021/07/23 01:38:54;;;;;;;11.10;8.20;;;19.00;99.90;;;;;;4997205;28;20203;-61
2021/07/23 01:41:21;;;;;;;8.23;7.47;;;19.00;99.90;;;;;;4995795;28;20540;-60
2021/07/23 01:43:47;;;;;;;8.00;7.30;;;18.90;99.90;;;;;;4997388;28;20192;-61
2021/07/23 01:46:12;;;;;;;7.33;6.53;;;19.00;99.90;;;;;;4997463;28;20180;-61
2021/07/23 01:48:38;;;;;;;8.90;7.60;;;19.00;99.90;;;;;;4997456;28;20247;-61
2021/07/23 01:51:03;;;;;;;8.47;7.67;;;19.00;99.90;;;;;;4997169;28;20231;-61
2021/07/23 01:53:29;;;;;;;9.27;7.03;;;19.00;99.90;;;;;;4997110;28;20273;-63
2021/07/23 01:55:54;;;;;;;9.27;8.47;;;18.90;99.90;;;;;;4997003;28;20246;-61
2021/07/23 01:58:20;;;;;;;8.63;7.13;;;18.90;99.90;;;;;;4997288;28;20228;-61
2021/07/23 02:00:46;;;;;;;7.73;7.03;;;18.90;99.90;;;;;;4997278;28;20203;-62
2021/07/23 02:03:11;;;;;;;7.93;7.13;;;18.80;99.90;;;;;;4996884;28;20200;-60
2021/07/23 02:05:37;;;;;;;8.30;7.43;;;18.80;99.90;;;;;;4996480;28;20254;-60
2021/07/23 02:08:02;;;;;;;9.03;7.03;;;18.80;99.90;;;;;;4995142;28;20681;-63
2021/07/23 02:10:28;;;;;;;8.10;7.30;;;18.80;99.90;;;;;;4994731;28;20267;-62
2021/07/23 02:12:56;;;;;;;8.17;7.37;;;18.80;99.90;;;;;;4994582;28;20249;-63
2021/07/23 02:15:22;;;;;;;8.37;7.33;;;18.80;99.90;;;;;;4995006;28;20175;-63
2021/07/23 02:17:47;;;;;;;8.30;7.50;;;18.70;99.90;;;;;;4994639;28;20187;-63
2021/07/23 02:20:13;;;;;;;8.27;7.47;;;18.70;99.90;;;;;;4994752;28;20164;-62
2021/07/23 02:22:39;;;;;;;8.90;8.00;;;18.60;99.90;;;;;;4995533;28;20202;-62
2021/07/23 02:25:05;;;;;;;8.20;6.83;;;18.60;99.90;;;;;;4996726;28;20173;-61
2021/07/23 02:27:34;;;;;;;8.10;7.30;;;18.70;99.90;;;;;;4996605;28;20252;-63
2021/07/23 02:30:00;;;;;;;7.87;7.17;;;18.60;99.90;;;;;;4997185;28;20174;-63
2021/07/23 02:32:26;;;;;;;7.77;7.07;;;18.60;99.90;;;;;;4996205;28;20202;-62
2021/07/23 02:34:51;;;;;;;8.50;7.00;;;18.60;99.90;;;;;;4996482;28;20172;-63
2021/07/23 02:37:17;;;;;;;8.03;7.23;;;18.60;99.90;;;;;;4996516;28;20215;-63
2021/07/23 02:39:42;;;;;;;7.77;7.07;;;18.60;99.90;;;;;;4996889;28;20264;-63
2021/07/23 02:42:08;;;;;;;8.13;7.20;;;18.60;99.90;;;;;;4995074;28;20191;-63
2021/07/23 02:44:33;;;;;;;8.40;7.60;;;18.60;99.90;;;;;;4996409;28;20240;-63
2021/07/23 02:46:59;;;;;;;8.50;7.60;;;18.60;99.90;;;;;;4995926;28;20200;-62
2021/07/23 02:49:24;;;;;;;7.63;6.93;;;18.60;99.90;;;;;;4996245;28;20177;-63
2021/07/23 02:51:50;;;;;;;8.27;7.47;;;18.60;99.90;;;;;;4995870;28;20244;-63
2021/07/23 02:54:15;;;;;;;8.23;7.43;;;18.60;99.90;;;;;;4996022;28;20671;-63
2021/07/23 02:56:41;;;;;;;8.23;7.43;;;18.60;99.90;;;;;;4996335;28;20655;-63
2021/07/23 02:59:07;;;;;;;9.83;8.10;;;18.60;99.90;;;;;;4995765;28;20189;-61
2021/07/23 03:01:33;;;;;;;8.13;7.33;;;18.60;99.90;;;;;;4995965;28;20181;-61
2021/07/23 03:03:59;;;;;;;8.57;7.57;;;18.60;99.90;;;;;;4995952;28;20292;-63
2021/07/23 03:06:24;;;;;;;8.20;7.40;;;18.60;99.90;;;;;;4995730;28;20238;-63
2021/07/23 03:08:50;;;;;;;9.67;7.97;;;18.60;99.90;;;;;;4995850;28;20579;-63
2021/07/23 03:11:15;;;;;;;8.73;7.90;;;18.50;99.90;;;;;;4995558;28;20199;-63
2021/07/23 03:13:41;;;;;;;8.03;7.27;;;18.50;99.90;;;;;;4995846;28;20201;-62
2021/07/23 03:16:14;;;;;;;8.90;8.00;;;18.50;99.90;;;;;;4996173;28;20173;-61
2021/07/23 03:18:40;;;;;;;7.90;7.20;;;18.50;99.90;;;;;;4996232;28;20549;-63
2021/07/23 03:21:06;;;;;;;8.20;7.40;;;18.60;99.90;;;;;;4995261;28;20202;-63
2021/07/23 03:23:32;;;;;;;8.57;7.77;;;18.60;99.90;;;;;;4994871;28;20202;-62
2021/07/23 03:25:57;;;;;;;10.23;8.10;;;18.60;99.90;;;;;;4995636;28;20269;-63
2021/07/23 03:28:23;;;;;;;8.57;7.67;;;18.60;99.90;;;;;;4995394;28;20209;-62
2021/07/23 03:30:49;;;;;;;7.77;7.07;;;18.60;99.90;;;;;;4995366;28;20166;-63
2021/07/23 03:33:14;;;;;;;8.43;7.63;;;18.60;99.90;;;;;;4995225;28;20675;-63
2021/07/23 03:35:39;;;;;;;8.03;7.33;;;18.60;99.90;;;;;;4995918;28;20174;-63
2021/07/23 03:38:05;;;;;;;8.33;7.53;;;18.60;99.90;;;;;;4995134;28;20280;-62
2021/07/23 03:40:31;;;;;;;8.43;7.33;;;18.60;99.90;;;;;;4995390;28;20492;-63
2021/07/23 03:42:56;;;;;;;8.40;7.53;;;18.50;99.90;;;;;;4995243;28;20236;-63
2021/07/23 03:45:22;;;;;;;8.00;7.20;;;18.50;99.90;;;;;;4995708;28;20187;-62
2021/07/23 03:47:47;;;;;;;8.20;7.40;;;18.40;99.90;;;;;;4995460;28;20213;-63
2021/07/23 03:50:13;;;;;;;8.63;7.83;;;18.40;99.90;;;;;;4994961;28;20186;-59
2021/07/23 03:52:39;;;;;;;8.30;7.50;;;18.40;99.90;;;;;;4994792;28;20241;-61
2021/07/23 03:55:05;;;;;;;8.43;7.63;;;18.50;99.90;;;;;;4995025;28;20189;-63
2021/07/23 03:57:31;;;;;;;8.63;7.60;;;18.50;99.90;;;;;;4995272;28;20566;-61
2021/07/23 03:59:56;;;;;;;8.33;7.37;;;18.50;99.90;;;;;;4994860;28;20634;-63
2021/07/23 04:02:21;;;;;;;8.20;7.40;;;18.50;99.90;;;;;;4994661;28;20252;-63
2021/07/23 04:04:47;;;;;;;8.10;7.30;;;18.60;99.90;;;;;;4994560;28;20225;-62
2021/07/23 04:07:12;;;;;;;9.60;7.27;;;18.60;99.90;;;;;;4994779;28;20691;-62
2021/07/23 04:09:38;;;;;;;8.73;7.87;;;18.60;99.90;;;;;;4994680;28;20190;-63
2021/07/23 04:12:04;;;;;;;7.73;6.93;;;18.60;99.90;;;;;;4994769;28;20577;-62
2021/07/23 04:14:29;;;;;;;8.60;7.20;;;18.70;99.90;;;;;;4994673;28;20217;-62
2021/07/23 04:16:55;;;;;;;8.40;7.53;;;18.70;99.90;;;;;;4995248;28;20181;-63
2021/07/23 04:19:21;;;;;;;8.00;7.30;;;19.70;99.90;;;;;;4995245;28;20221;-63
2021/07/23 04:21:46;;;;;;;8.23;7.43;;;18.80;99.90;;;;;;4994014;28;20274;-63
2021/07/23 04:24:12;;;;;;;8.00;7.20;;;18.90;99.90;;;;;;4994656;28;20194;-62
2021/07/23 04:26:37;;;;;;;8.13;7.30;;;18.90;99.90;;;;;;4994503;28;20339;-62
2021/07/23 04:29:03;;;;;;;8.00;7.27;;;18.80;99.90;;;;;;4994496;28;20527;-63
2021/07/23 04:31:28;;;;;;;9.30;7.50;;;18.90;99.90;;;;;;4994322;28;20536;-63
2021/07/23 04:33:58;;;;;;;7.67;6.70;;;18.90;99.90;;;;;;4994429;28;20207;-63
2021/07/23 04:36:23;;;;;;;7.33;6.47;;;18.90;99.90;;;;;;4994518;28;20537;-63
2021/07/23 04:38:49;;;;;;;8.23;7.47;;;19.00;99.90;;;;;;4994081;28;20628;-63
2021/07/23 04:41:15;;;;;;;9.23;8.37;;;19.00;99.90;;;;;;4994236;28;20605;-60
2021/07/23 04:43:40;;;;;;;11.30;10.10;;;19.00;99.90;;;;;;4994302;28;20260;-61
2021/07/23 04:46:06;;;;;;;11.47;9.73;;;19.10;99.90;;;;;;4994399;28;20184;-63
2021/07/23 04:48:33;;;;;;;9.50;8.50;;;19.20;99.90;;;;;;4994852;28;20205;-63
2021/07/23 04:51:01;;;;;;;8.77;7.93;;;19.30;99.90;;;;;;4993392;28;20280;-63
2021/07/23 04:53:26;;;;;;;8.80;7.93;;;19.40;99.90;;;;;;4994523;28;20259;-60
2021/07/23 04:55:54;;;;;;;10.60;9.50;;;19.40;99.90;;;;;;4994543;28;20181;-61
2021/07/23 04:58:19;;;;;;;11.23;10.13;;;19.40;99.90;;;;;;4994309;28;20204;-61
2021/07/23 05:00:45;;;;;;;12.17;10.90;;;19.40;99.90;;;;;;4994159;28;20185;-62
2021/07/23 05:03:11;;;;;;;11.90;10.70;;;19.40;99.90;;;;;;4994187;28;20228;-62
2021/07/23 05:05:41;;;;;;;12.23;10.37;;;19.40;99.90;;;;;;4994188;28;20173;-62
2021/07/23 05:08:09;;;;;;;11.63;10.43;;;19.40;99.90;;;;;;4993868;28;20217;-62
2021/07/23 05:10:35;;;;;;;11.63;10.43;;;19.40;99.90;;;;;;4995767;28;20576;-62
2021/07/23 05:13:01;;;;;;;10.97;9.97;;;19.40;99.90;;;;;;4997735;28;20185;-60
2021/07/23 05:15:26;;;;;;;9.03;8.10;;;19.60;99.90;;;;;;4997423;28;20506;-62
2021/07/23 05:17:52;;;;;;;8.87;7.67;;;19.70;99.90;;;;;;4998591;28;20264;-61
2021/07/23 05:20:17;;;;;;;7.90;7.20;;;19.70;99.90;;;;;;4997894;28;20320;-62
2021/07/23 05:22:43;;;;;;;8.37;7.30;;;19.80;99.90;;;;;;4997350;28;20213;-62
2021/07/23 05:25:10;;;;;;;7.73;6.97;;;19.80;99.90;;;;;;4997949;28;20177;-62
2021/07/23 05:27:36;;;;;;;7.27;6.57;;;19.80;99.90;;;;;;4998023;28;20668;-62
2021/07/23 05:30:03;;;;;;;8.10;6.57;;;20.00;99.90;;;;;;4997944;28;20649;-61
2021/07/23 05:32:28;;;;;;;7.77;6.93;;;20.00;99.90;;;;;;4997717;28;20197;-62
2021/07/23 05:34:54;;;;;;;7.30;6.60;;;20.10;99.90;;;;;;4997781;28;20202;-62
2021/07/23 05:37:19;;;;;;;8.00;7.30;;;20.10;99.90;;;;;;4981121;28;20217;-61
2021/07/23 05:39:45;;;;;;;8.17;7.20;;;20.20;99.90;;;;;;4994283;28;20220;-61
2021/07/23 05:42:11;;;;;;;7.43;6.67;;;20.20;99.90;;;;;;4997365;28;20181;-60
2021/07/23 05:44:36;;;;;;;8.03;7.23;;;20.10;99.90;;;;;;4997978;28;20599;-63
2021/07/23 05:47:02;;;;;;;7.77;7.07;;;20.00;99.90;;;;;;4997249;28;20190;-63
2021/07/23 05:49:28;;;;;;;8.17;7.47;;;19.80;99.90;;;;;;4997117;28;20553;-63
2021/07/23 05:51:54;;;;;;;10.73;7.27;;;19.70;99.90;;;;;;4994650;28;20945;-63
2021/07/23 05:54:19;;;;;;;8.33;7.53;;;19.70;99.90;;;;;;4985951;28;20251;-63
2021/07/23 05:56:45;;;;;;;8.57;7.77;;;19.70;99.90;;;;;;5000141;28;20175;-64
2021/07/23 05:59:10;;;;;;;8.80;7.93;;;19.80;99.90;;;;;;5016877;28;20633;-62
2021/07/23 06:01:36;;;;;;;8.17;7.37;;;20.00;99.90;;;;;;5004031;28;20190;-64
2021/07/23 06:04:01;;;;;;;8.10;7.30;;;20.00;99.90;;;;;;4996634;28;20195;-63
2021/07/23 06:06:27;;;;;;;7.65;6.70;;;20.10;99.90;;;;;;4996814;28;20177;-64
2021/07/23 06:08:54;;;;;;;8.10;7.20;;;20.40;99.90;;;;;;4997084;28;20424;-62
2021/07/23 06:11:20;;;;;;;8.60;7.80;;;20.60;99.90;;;;;;4996838;28;20181;-65
2021/07/23 06:13:45;;;;;;;8.10;7.30;;;20.70;99.90;;;;;;5008907;28;20204;-64
2021/07/23 06:16:13;;;;;;;9.83;8.33;;;20.70;99.90;;;;;;5009878;28;20197;-64
2021/07/23 06:18:38;;;;;;;8.50;7.60;;;20.70;99.90;;;;;;4996839;28;20180;-63
2021/07/23 06:21:07;;;;;;;7.97;7.17;;;20.80;99.90;;;;;;4996631;28;20185;-64
2021/07/23 06:23:32;;;;;;;8.70;6.83;;;20.80;99.90;;;;;;4996294;28;20201;-63
2021/07/23 06:26:02;;;;;;;8.53;7.70;;;20.70;99.90;;;;;;4997493;28;20173;-63
2021/07/23 06:28:27;;;;;;;8.60;6.53;;;20.60;99.90;;;;;;4996619;28;20212;-63
2021/07/23 06:31:04;;;;;;;6.83;6.13;;;20.70;99.90;;;;;;4987297;28;20189;-63
2021/07/23 06:33:30;;;;;;;7.70;6.50;;;20.80;99.90;;;;;;4995344;28;20197;-64
2021/07/23 06:35:56;;;;;;;7.43;6.10;;;21.00;99.90;;;;;;4985121;28;20689;-64
2021/07/23 06:38:21;;;;;;;6.70;5.53;;;21.20;99.90;;;;;;4991958;28;20189;-64
2021/07/23 06:40:47;;;;;;;7.10;6.40;;;21.50;99.90;;;;;;4996856;28;20186;-63
2021/07/23 06:43:13;;;;;;;6.80;6.10;;;21.60;99.90;;;;;;4996835;28;20617;-63
2021/07/23 06:45:38;;;;;;;5.72;5.22;;;21.70;99.90;;;;;;4996585;28;20185;-64
2021/07/23 06:48:04;;;;;;;6.05;5.45;;;21.80;99.90;;;;;;4996176;28;20209;-63
2021/07/23 06:50:32;;;;;;;7.38;6.38;;;22.00;99.90;;;;;;4995888;28;20171;-64
2021/07/23 06:53:01;;;;;;;6.93;6.30;;;22.10;99.90;;;;;;4995962;28;20539;-64
2021/07/23 06:55:26;;;;;;;7.80;5.40;;;22.20;99.90;;;;;;4995875;28;20515;-62
2021/07/23 06:57:52;;;;;;;6.70;5.97;;;22.00;99.90;;;;;;4996225;28;20205;-63
2021/07/23 07:00:17;;;;;;;6.40;5.80;;;22.00;99.90;;;;;;4996268;28;20258;-63
2021/07/23 07:02:43;;;;;;;7.65;6.15;;;22.20;99.90;;;;;;4996092;28;20276;-64
2021/07/23 07:05:09;;;;;;;6.03;5.43;;;22.30;99.90;;;;;;4996064;28;20212;-64
2021/07/23 07:07:35;;;;;;;7.90;5.90;;;22.40;99.90;;;;;;4995720;28;20204;-63
2021/07/23 07:10:00;;;;;;;6.35;5.72;;;22.50;99.90;;;;;;4995833;28;20192;-63
2021/07/23 07:12:26;;;;;;;5.82;5.22;;;22.30;99.90;;;;;;4995537;28;20192;-63
2021/07/23 07:14:51;;;;;;;6.45;5.85;;;22.10;99.90;;;;;;4996038;28;20231;-63
2021/07/23 07:17:18;;;;;;;6.35;5.75;;;22.10;99.90;;;;;;4995671;28;20180;-63
2021/07/23 07:19:44;;;;;;;5.63;5.13;;;22.40;99.90;;;;;;4996298;28;20196;-64
2021/07/23 07:22:10;;;;;;;6.50;5.82;;;22.80;99.90;;;;;;5005607;28;20191;-62
2021/07/23 07:24:35;;;;;;;6.75;5.68;;;23.00;99.90;;;;;;5004408;28;20193;-64
2021/07/23 07:27:01;;;;;;;6.32;5.72;;;23.10;99.90;;;;;;5004756;28;20193;-64
2021/07/23 07:29:26;;;;;;;5.85;5.35;;;23.30;99.90;;;;;;5005905;28;20169;-63
2021/07/23 07:31:52;;;;;;;5.93;5.32;;;23.10;99.90;;;;;;4995450;28;20177;-64
2021/07/23 07:34:17;;;;;;;6.47;5.40;;;23.00;99.90;;;;;;4995142;28;20292;-62
2021/07/23 07:36:43;;;;;;;5.75;5.25;;;23.20;99.90;;;;;;4995586;28;20534;-63
2021/07/23 07:39:09;;;;;;;5.60;5.10;;;23.10;99.90;;;;;;4995087;28;20169;-62
2021/07/23 07:41:35;;;;;;;5.63;5.03;;;23.20;99.90;;;;;;4995690;28;20181;-63
2021/07/23 07:44:00;;;;;;;5.68;5.18;;;23.40;99.90;;;;;;4996003;28;20220;-63
2021/07/23 07:46:26;;;;;;;6.55;5.63;;;23.60;99.90;;;;;;4995410;28;20223;-63
2021/07/23 07:48:52;;;;;;;6.05;5.47;;;23.70;99.90;;;;;;4993790;28;20225;-63
2021/07/23 07:51:18;;;;;;;7.20;4.97;;;23.70;99.90;;;;;;4994892;28;20185;-63
2021/07/23 07:53:43;;;;;;;5.43;4.93;;;23.60;99.90;;;;;;4995083;28;20665;-63
2021/07/23 07:56:13;;;;;;;5.93;5.32;;;23.40;99.90;;;;;;4993962;28;20177;-63
2021/07/23 07:58:39;;;;;;;5.70;5.18;;;23.10;99.90;;;;;;4995087;28;20176;-63
2021/07/23 08:01:09;;;;;;;7.15;5.10;;;23.20;99.90;;;;;;4994892;28;20725;-63
2021/07/23 08:03:35;;;;;;;6.07;5.45;;;23.40;99.90;;;;;;4994984;28;20244;-63
2021/07/23 08:06:05;;;;;;;5.43;4.93;;;23.70;99.90;;;;;;4994846;28;20203;-63
2021/07/23 08:08:31;;;;;;;6.28;5.53;;;23.80;99.90;;;;;;4994746;28;20211;-63
2021/07/23 08:10:57;;;;;;;6.40;5.80;;;24.00;99.90;;;;;;4994616;28;20184;-63
2021/07/23 08:13:26;;;;;;;7.45;5.57;;;23.80;99.90;;;;;;4993359;28;20308;-63
2021/07/23 08:15:56;;;;;;;7.22;6.22;;;24.10;99.90;;;;;;4994514;28;20165;-63
2021/07/23 08:18:22;;;;;;;6.50;5.90;;;24.40;99.90;;;;;;4995029;28;20162;-63
2021/07/23 08:20:50;;;;;;;7.95;6.00;;;24.50;99.90;;;;;;4994615;28;20170;-64
2021/07/23 08:23:19;;;;;;;8.38;6.50;;;24.50;99.90;;;;;;4994203;28;20196;-63
2021/07/23 08:25:45;;;;;;;8.25;6.10;;;24.20;99.90;;;;;;4994538;28;20272;-64
2021/07/23 08:28:11;;;;;;;8.70;6.50;;;24.00;99.90;;;;;;5014020;28;20295;-63
2021/07/23 08:30:37;;;;;;;7.93;6.57;;;23.80;99.90;;;;;;5014614;28;20643;-64
2021/07/23 08:33:02;;;;;;;8.02;6.05;;;23.70;99.90;;;;;;5009532;28;20722;-63
2021/07/23 08:35:28;;;;;;;6.85;6.10;;;23.70;99.90;;;;;;4992206;28;20559;-63
2021/07/23 08:37:53;;;;;;;11.25;6.75;;;23.80;99.90;;;;;;4992556;28;20720;-64
2021/07/23 08:40:19;;;;;;;9.35;6.28;;;24.00;99.90;;;;;;5001446;28;20624;-63
2021/07/23 08:42:46;;;;;;;6.50;5.90;;;24.20;99.90;;;;;;5005026;28;20568;-63
2021/07/23 08:45:11;;;;;;;7.40;6.60;;;24.40;99.90;;;;;;4995947;28;20499;-63
2021/07/23 08:47:37;;;;;;;7.18;6.47;;;24.50;99.90;;;;;;4997900;28;20699;-63
2021/07/23 08:50:04;;;;;;;6.65;6.05;;;24.50;99.90;;;;;;4999474;28;20182;-63
2021/07/23 08:52:44;;;;;;;7.10;6.45;;;24.70;99.90;;;;;;4993124;28;20195;-63
2021/07/23 08:55:11;;;;;;;6.63;6.03;;;24.80;99.90;;;;;;5008696;28;20196;-64
2021/07/23 08:57:37;;;;;;;6.78;6.07;;;25.00;99.90;;;;;;5013765;28;20175;-63
2021/07/23 09:00:34;;;;;;;8.00;6.32;;;25.00;99.90;;;;;;5014148;28;20259;-64
2021/07/23 09:03:01;;;;;;;8.30;7.10;;;25.20;99.90;;;;;;5010538;28;20208;-63
2021/07/23 09:05:34;;;;;;;6.78;6.15;;;25.20;99.90;;;;;;5014177;28;20605;-64
2021/07/23 09:08:12;;;;;;;9.07;7.03;;;25.30;99.90;;;;;;5013430;28;20231;-64
2021/07/23 09:10:37;;;;;;;9.15;6.50;;;25.50;99.90;;;;;;5013980;28;20258;-63
2021/07/23 09:13:05;;;;;;;6.28;5.68;;;25.50;99.90;;;;;;5013570;28;20224;-64
2021/07/23 09:15:42;;;;;;;8.95;6.38;;;25.70;99.90;;;;;;5014334;28;20176;-63
2021/07/23 09:18:18;;;;;;;9.45;5.72;;;25.70;99.90;;;;;;5013702;28;20183;-64
2021/07/23 09:20:56;;;;;;;7.07;5.43;;;25.90;99.90;;;;;;5013687;28;20637;-64
2021/07/23 09:23:30;;;;;;;6.28;5.68;;;26.20;99.90;;;;;;5013610;28;20188;-64
2021/07/23 09:26:03;;;;;;;6.65;5.95;;;26.60;99.90;;;;;;5014316;28;20173;-64
2021/07/23 09:28:31;;;;;;;7.93;5.47;;;26.70;99.90;;;;;;5013998;28;20200;-64
2021/07/23 09:31:01;;;;;;;6.40;5.80;;;26.60;99.90;;;;;;5012916;28;20189;-64
2021/07/23 09:33:33;;;;;;;7.32;6.10;;;27.00;99.90;;;;;;5008967;28;20669;-64
2021/07/23 09:36:02;;;;;;;6.35;5.75;;;26.30;99.90;;;;;;4999585;28;20194;-63
2021/07/23 09:39:04;;;;;;;9.05;5.85;;;26.00;99.90;;;;;;4996647;28;20240;-64
2021/07/23 09:41:30;;;;;;;6.70;5.68;;;25.50;99.90;;;;;;4976907;28;20189;-64
2021/07/23 09:44:08;;;;;;;6.60;6.00;;;25.40;99.90;;;;;;4991686;28;20205;-64
2021/07/23 09:46:44;;;;;;;7.05;6.20;;;25.60;99.90;;;;;;4993686;28;20506;-64
2021/07/23 09:49:21;;;;;;;6.57;5.88;;;26.00;99.90;;;;;;5001130;28;20177;-63
2021/07/23 09:51:51;;;;;;;6.47;5.85;;;26.40;99.90;;;;;;5001066;28;20613;-63
2021/07/23 09:54:20;;;;;;;6.13;5.47;;;26.80;99.90;;;;;;4998558;28;20201;-65
2021/07/23 09:56:47;;;;;;;7.25;5.72;;;27.20;99.90;;;;;;5000617;28;20629;-64
2021/07/23 09:59:25;;;;;;;5.80;5.20;;;27.30;99.90;;;;;;5009370;28;20195;-64
2021/07/23 10:01:56;;;;;;;6.40;5.80;;;27.20;99.90;;;;;;5013070;28;20191;-65
2021/07/23 10:04:40;;;;;;;8.40;5.75;;;27.20;98.00;;;;;;5003631;28;20193;-64
2021/07/23 10:07:15;;;;;;;6.18;5.18;;;27.10;99.00;;;;;;5001872;28;20564;-64
2021/07/23 10:09:42;;;;;;;5.85;5.28;;;27.10;98.60;;;;;;5005919;28;20196;-64
2021/07/23 10:12:09;;;;;;;6.05;5.35;;;27.20;98.60;;;;;;4997234;28;20301;-65
2021/07/23 10:14:39;;;;;;;5.60;5.05;;;27.30;98.40;;;;;;4997539;28;20197;-64
2021/07/23 10:17:05;;;;;;;7.20;5.72;;;27.40;98.90;;;;;;4997784;28;20664;-65
2021/07/23 10:19:31;;;;;;;6.85;6.05;;;27.70;99.10;;;;;;5005474;28;20657;-65
2021/07/23 10:21:58;;;;;;;10.07;5.95;;;27.70;97.30;;;;;;4997475;28;20660;-65
2021/07/23 10:24:30;;;;;;;6.65;5.28;;;27.40;98.00;;;;;;5000670;28;20608;-65
2021/07/23 10:26:57;;;;;;;7.68;5.60;;;27.30;98.90;;;;;;5002658;28;20212;-64
2021/07/23 10:29:48;;;;;;;5.85;5.25;;;27.20;99.10;;;;;;4997067;28;20205;-64
2021/07/23 10:32:33;;;;;;;6.22;5.63;;;27.40;99.90;;;;;;5003957;28;20253;-65
2021/07/23 10:35:01;;;;;;;6.32;5.72;;;27.30;96.90;;;;;;4998921;28;20525;-64
2021/07/23 10:37:47;;;;;;;6.90;5.20;;;27.30;99.40;;;;;;5003499;28;20549;-65
2021/07/23 10:40:14;;;;;;;6.13;5.50;;;27.50;98.00;;;;;;4999544;28;20189;-65
2021/07/23 10:42:40;;;;;;;7.90;5.78;;;27.60;99.00;;;;;;5003762;28;20673;-65
2021/07/23 10:45:12;;;;;;;5.78;5.28;;;27.80;99.00;;;;;;4993205;28;20228;-64
2021/07/23 10:47:43;;;;;;;8.00;5.95;;;28.10;97.20;;;;;;4985195;28;20240;-65
2021/07/23 10:50:25;;;;;;;5.90;5.35;;;28.10;96.60;;;;;;4975203;28;20216;-65
2021/07/23 10:52:54;;;;;;;7.90;5.93;;;28.00;96.30;;;;;;4974944;28;20265;-65
2021/07/23 10:55:21;;;;;;;6.10;5.50;;;28.20;96.60;;;;;;4975781;28;20622;-63
2021/07/23 10:58:05;;;;;;;5.63;5.10;;;28.50;97.10;;;;;;4977420;28;20178;-63
2021/07/23 11:01:01;;;;;;;7.40;5.95;;;28.70;96.40;;;;;;4976596;28;20205;-62
2021/07/23 11:03:42;;;;;;;7.03;5.53;;;28.70;93.90;;;;;;4976006;28;20267;-63
2021/07/23 11:06:19;;;;;;;9.73;5.82;;;28.80;95.30;;;;;;4976676;28;20530;-63
2021/07/23 11:08:52;;;;;;;6.30;5.72;;;28.90;94.90;;;;;;4975947;28;20229;-63
2021/07/23 11:11:20;;;;;;;9.88;6.20;;;28.90;95.40;;;;;;4976228;28;20218;-62
2021/07/23 11:13:45;;;;;;;6.45;5.82;;;28.70;93.30;;;;;;4976500;28;20194;-63
2021/07/23 11:16:12;;;;;;;6.07;5.50;;;28.50;95.30;;;;;;4976534;28;20174;-63
2021/07/23 11:18:49;;;;;;;6.53;5.85;;;28.40;94.60;;;;;;4976362;28;20186;-62
2021/07/23 11:21:15;;;;;;;8.43;5.90;;;28.50;95.80;;;;;;4975879;28;20617;-65
2021/07/23 11:23:40;;;;;;;6.72;5.90;;;28.70;97.10;;;;;;4976758;28;20738;-65
2021/07/23 11:26:06;;;;;;;6.57;5.97;;;29.20;99.90;;;;;;4976676;28;20182;-65
2021/07/23 11:28:46;;;;;;;6.13;5.63;;;28.90;94.40;;;;;;4975942;28;20204;-62
2021/07/23 11:31:32;;;;;;;6.93;5.95;;;29.00;93.50;;;;;;4976162;28;20217;-63
2021/07/23 11:34:00;;;;;;;6.55;5.95;;;29.30;96.20;;;;;;4976285;28;20200;-62
2021/07/23 11:36:35;;;;;;;6.00;5.40;;;29.20;96.30;;;;;;4976631;28;20500;-62
2021/07/23 11:39:06;;;;;;;6.75;6.05;;;29.50;95.50;;;;;;4975920;28;20193;-62
2021/07/23 11:41:32;;;;;;;7.10;5.80;;;29.60;94.20;;;;;;4976395;28;20166;-63
2021/07/23 11:44:08;;;;;;;6.43;5.53;;;29.40;92.60;;;;;;4975693;28;20249;-62
2021/07/23 11:46:35;;;;;;;7.57;6.55;;;29.40;94.70;;;;;;4975926;28;20229;-62
2021/07/23 11:49:01;;;;;;;9.55;5.80;;;29.50;93.50;;;;;;4975717;28;20670;-63
2021/07/23 11:51:56;;;;;;;6.45;5.85;;;29.50;93.00;;;;;;4975586;28;20220;-63
2021/07/23 11:54:22;;;;;;;7.45;6.03;;;29.60;95.80;;;;;;4916417;29;20736;-62
2021/07/23 11:56:47;;;;;;;6.18;5.68;;;29.40;97.00;;;;;;4916361;29;20279;-63
2021/07/23 11:59:14;;;;;;;6.22;5.63;;;29.40;96.60;;;;;;4916147;29;20184;-62
2021/07/23 12:01:41;;;;;;;6.93;6.20;;;29.50;96.70;;;;;;4915981;29;20160;-62
2021/07/23 12:04:08;;;;;;;6.50;5.72;;;29.60;94.30;;;;;;4916090;29;20609;-62
2021/07/23 12:06:38;;;;;;;6.32;5.72;;;29.80;94.70;;;;;;4915895;29;20281;-63
2021/07/23 12:09:05;;;;;;;6.35;5.70;;;30.20;95.60;;;;;;4915673;29;20243;-63
2021/07/23 12:11:32;;;;;;;6.70;5.82;;;30.60;97.30;;;;;;4915984;29;20255;-63
2021/07/23 12:14:04;;;;;;;6.68;5.80;;;30.80;96.40;;;;;;4916016;29;20538;-63
2021/07/23 12:16:30;;;;;;;6.60;5.75;;;30.90;94.40;;;;;;4915974;29;20218;-63
2021/07/23 12:18:57;;;;;;;6.40;5.78;;;30.90;95.40;;;;;;4915461;29;20574;-63
2021/07/23 12:21:25;;;;;;;6.72;6.03;;;30.80;92.20;;;;;;4915117;29;20180;-63
2021/07/23 12:23:57;;;;;;;8.60;6.45;;;30.80;93.70;;;;;;4915466;29;20227;-63
2021/07/23 12:26:31;;;;;;;6.00;5.40;;;31.20;94.30;;;;;;4915844;29;20219;-63
2021/07/23 12:28:58;;;;;;;6.63;6.03;;;31.30;94.10;;;;;;4916309;29;20211;-64
2021/07/23 12:31:25;;;;;;;7.07;6.03;;;31.20;91.20;;;;;;4961797;28;20217;-64
2021/07/23 12:34:07;;;;;;;6.50;5.90;;;31.10;91.90;;;;;;4975171;28;20220;-64
2021/07/23 12:36:41;;;;;;;6.32;5.72;;;31.20;92.50;;;;;;4975082;28;20162;-64
2021/07/23 12:39:07;;;;;;;6.20;5.70;;;31.30;92.30;;;;;;4975373;28;20217;-63
2021/07/23 12:41:33;;;;;;;6.30;5.70;;;31.20;92.40;;;;;;4975153;28;20174;-63
2021/07/23 12:44:09;;;;;;;6.78;6.07;;;31.40;94.50;;;;;;4974803;28;20206;-63
2021/07/23 12:46:36;;;;;;;6.80;6.10;;;31.30;93.60;;;;;;4975537;28;20248;-63
2021/07/23 12:49:11;;;;;;;6.95;6.10;;;31.40;92.90;;;;;;4974873;28;20200;-63